sensor_id;sensor_type;location;lat;lon;timestamp;P1;durP1;ratioP1;P2;durP2;ratioP2
52458;SDS011;38372;52.902;6.024;2024-01-10T00:00:37;4.50;;;2.33;;
52458;SDS011;38372;52.902;6.024;2024-01-10T00:03:03;5.03;;;2.75;;
52458;SDS011;38372;52.902;6.024;2024-01-10T00:05:29;7.80;;;4.15;;
52458;SDS011;38372;52.902;6.024;2024-01-10T00:07:55;6.32;;;2.25;;
52458;SDS011;38372;52.902;6.024;2024-01-10T00:10:21;5.88;;;2.95;;
52458;SDS011;38372;52.902;6.024;2024-01-10T00:12:47;6.32;;;2.80;;
52458;SDS011;38372;52.902;6.024;2024-01-10T00:15:26;4.95;;;2.80;;
52458;SDS011;38372;52.902;6.024;2024-01-10T00:17:52;4.15;;;3.15;;
52458;SDS011;38372;52.902;6.024;2024-01-10T00:20:18;4.82;;;1.98;;
52458;SDS011;38372;52.902;6.024;2024-01-10T00:22:44;4.55;;;2.15;;
52458;SDS011;38372;52.902;6.024;2024-01-10T00:25:09;6.90;;;2.25;;
52458;SDS011;38372;52.902;6.024;2024-01-10T00:27:35;5.38;;;2.70;;
52458;SDS011;38372;52.902;6.024;2024-01-10T00:30:01;4.90;;;2.65;;
52458;SDS011;38372;52.902;6.024;2024-01-10T00:32:27;5.32;;;2.10;;
52458;SDS011;38372;52.902;6.024;2024-01-10T00:34:53;4.00;;;2.78;;
52458;SDS011;38372;52.902;6.024;2024-01-10T00:37:19;6.57;;;2.72;;
52458;SDS011;38372;52.902;6.024;2024-01-10T00:39:44;3.45;;;1.92;;
52458;SDS011;38372;52.902;6.024;2024-01-10T00:42:10;5.28;;;3.20;;
52458;SDS011;38372;52.902;6.024;2024-01-10T00:44:36;4.53;;;2.80;;
52458;SDS011;38372;52.902;6.024;2024-01-10T00:47:02;2.83;;;1.92;;
52458;SDS011;38372;52.902;6.024;2024-01-10T00:49:28;7.35;;;3.13;;
52458;SDS011;38372;52.902;6.024;2024-01-10T00:51:53;9.30;;;4.68;;
52458;SDS011;38372;52.902;6.024;2024-01-10T00:54:19;4.55;;;2.30;;
52458;SDS011;38372;52.902;6.024;2024-01-10T00:56:45;4.50;;;2.75;;
52458;SDS011;38372;52.902;6.024;2024-01-10T00:59:11;4.28;;;2.30;;
52458;SDS011;38372;52.902;6.024;2024-01-10T01:01:36;6.82;;;2.13;;
52458;SDS011;38372;52.902;6.024;2024-01-10T01:04:02;2.72;;;2.00;;
52458;SDS011;38372;52.902;6.024;2024-01-10T01:06:28;6.45;;;2.85;;
52458;SDS011;38372;52.902;6.024;2024-01-10T01:08:54;5.53;;;1.92;;
52458;SDS011;38372;52.902;6.024;2024-01-10T01:11:20;10.65;;;3.40;;
52458;SDS011;38372;52.902;6.024;2024-01-10T01:13:45;4.15;;;2.60;;
52458;SDS011;38372;52.902;6.024;2024-01-10T01:16:18;5.75;;;3.75;;
52458;SDS011;38372;52.902;6.024;2024-01-10T01:18:43;3.92;;;2.30;;
52458;SDS011;38372;52.902;6.024;2024-01-10T01:21:13;4.85;;;2.33;;
52458;SDS011;38372;52.902;6.024;2024-01-10T01:23:39;4.78;;;2.42;;
52458;SDS011;38372;52.902;6.024;2024-01-10T01:26:05;5.20;;;1.80;;
52458;SDS011;38372;52.902;6.024;2024-01-10T01:28:30;4.63;;;1.90;;
52458;SDS011;38372;52.902;6.024;2024-01-10T01:30:57;3.53;;;2.63;;
52458;SDS011;38372;52.902;6.024;2024-01-10T01:33:22;1.92;;;1.65;;
52458;SDS011;38372;52.902;6.024;2024-01-10T01:35:48;2.55;;;2.10;;
52458;SDS011;38372;52.902;6.024;2024-01-10T01:38:14;1.75;;;1.42;;
52458;SDS011;38372;52.902;6.024;2024-01-10T01:40:40;2.42;;;1.67;;
52458;SDS011;38372;52.902;6.024;2024-01-10T01:46:01;3.80;;;2.22;;
52458;SDS011;38372;52.902;6.024;2024-01-10T01:48:28;2.72;;;2.35;;
52458;SDS011;38372;52.902;6.024;2024-01-10T01:51:00;3.00;;;2.65;;
52458;SDS011;38372;52.902;6.024;2024-01-10T01:53:28;4.55;;;3.08;;
52458;SDS011;38372;52.902;6.024;2024-01-10T01:55:54;4.13;;;2.85;;
52458;SDS011;38372;52.902;6.024;2024-01-10T01:58:20;5.28;;;3.17;;
52458;SDS011;38372;52.902;6.024;2024-01-10T02:00:47;2.30;;;1.52;;
52458;SDS011;38372;52.902;6.024;2024-01-10T02:03:13;7.50;;;2.30;;
52458;SDS011;38372;52.902;6.024;2024-01-10T02:05:39;2.67;;;2.45;;
52458;SDS011;38372;52.902;6.024;2024-01-10T02:08:05;3.25;;;2.03;;
52458;SDS011;38372;52.902;6.024;2024-01-10T02:10:31;1.98;;;1.60;;
52458;SDS011;38372;52.902;6.024;2024-01-10T02:13:04;3.90;;;2.50;;
52458;SDS011;38372;52.902;6.024;2024-01-10T02:15:37;7.93;;;2.28;;
52458;SDS011;38372;52.902;6.024;2024-01-10T02:18:10;11.75;;;3.40;;
52458;SDS011;38372;52.902;6.024;2024-01-10T02:20:37;8.57;;;2.67;;
52458;SDS011;38372;52.902;6.024;2024-01-10T02:23:03;4.57;;;2.75;;
52458;SDS011;38372;52.902;6.024;2024-01-10T02:25:29;3.10;;;2.80;;
52458;SDS011;38372;52.902;6.024;2024-01-10T02:27:55;4.97;;;1.98;;
52458;SDS011;38372;52.902;6.024;2024-01-10T02:30:21;3.63;;;2.80;;
52458;SDS011;38372;52.902;6.024;2024-01-10T02:32:46;3.70;;;2.97;;
52458;SDS011;38372;52.902;6.024;2024-01-10T02:35:12;4.10;;;2.63;;
52458;SDS011;38372;52.902;6.024;2024-01-10T02:37:38;4.35;;;2.60;;
52458;SDS011;38372;52.902;6.024;2024-01-10T02:40:04;6.13;;;3.00;;
52458;SDS011;38372;52.902;6.024;2024-01-10T02:42:31;4.50;;;2.60;;
52458;SDS011;38372;52.902;6.024;2024-01-10T02:44:57;7.10;;;3.25;;
52458;SDS011;38372;52.902;6.024;2024-01-10T02:47:23;6.22;;;3.03;;
52458;SDS011;38372;52.902;6.024;2024-01-10T02:49:48;6.00;;;2.85;;
52458;SDS011;38372;52.902;6.024;2024-01-10T02:52:14;6.63;;;2.95;;
52458;SDS011;38372;52.902;6.024;2024-01-10T02:54:47;4.80;;;4.03;;
52458;SDS011;38372;52.902;6.024;2024-01-10T02:57:12;5.38;;;2.78;;
52458;SDS011;38372;52.902;6.024;2024-01-10T02:59:38;3.88;;;2.70;;
52458;SDS011;38372;52.902;6.024;2024-01-10T03:02:04;7.72;;;3.70;;
52458;SDS011;38372;52.902;6.024;2024-01-10T03:04:30;8.35;;;4.07;;
52458;SDS011;38372;52.902;6.024;2024-01-10T03:06:56;4.85;;;3.15;;
52458;SDS011;38372;52.902;6.024;2024-01-10T03:09:22;4.13;;;2.40;;
52458;SDS011;38372;52.902;6.024;2024-01-10T03:11:48;4.40;;;3.20;;
52458;SDS011;38372;52.902;6.024;2024-01-10T03:14:20;3.40;;;3.03;;
52458;SDS011;38372;52.902;6.024;2024-01-10T03:16:53;3.08;;;2.20;;
52458;SDS011;38372;52.902;6.024;2024-01-10T03:19:19;5.70;;;2.90;;
52458;SDS011;38372;52.902;6.024;2024-01-10T03:21:45;4.47;;;3.30;;
52458;SDS011;38372;52.902;6.024;2024-01-10T03:24:11;7.88;;;4.57;;
52458;SDS011;38372;52.902;6.024;2024-01-10T03:26:36;6.38;;;3.05;;
52458;SDS011;38372;52.902;6.024;2024-01-10T03:29:02;5.57;;;3.22;;
52458;SDS011;38372;52.902;6.024;2024-01-10T03:31:28;6.32;;;3.28;;
52458;SDS011;38372;52.902;6.024;2024-01-10T03:37:16;7.75;;;4.38;;
52458;SDS011;38372;52.902;6.024;2024-01-10T03:39:42;10.80;;;4.10;;
52458;SDS011;38372;52.902;6.024;2024-01-10T03:42:08;7.00;;;3.75;;
52458;SDS011;38372;52.902;6.024;2024-01-10T03:44:34;7.20;;;3.80;;
52458;SDS011;38372;52.902;6.024;2024-01-10T03:46:59;7.18;;;4.43;;
52458;SDS011;38372;52.902;6.024;2024-01-10T03:49:25;5.10;;;3.30;;
52458;SDS011;38372;52.902;6.024;2024-01-10T03:51:51;5.25;;;3.58;;
52458;SDS011;38372;52.902;6.024;2024-01-10T03:54:17;6.63;;;3.00;;
52458;SDS011;38372;52.902;6.024;2024-01-10T03:56:42;6.82;;;4.25;;
52458;SDS011;38372;52.902;6.024;2024-01-10T03:59:08;10.68;;;4.28;;
52458;SDS011;38372;52.902;6.024;2024-01-10T04:01:34;6.15;;;2.60;;
52458;SDS011;38372;52.902;6.024;2024-01-10T04:04:04;4.68;;;3.03;;
52458;SDS011;38372;52.902;6.024;2024-01-10T04:06:30;8.63;;;2.83;;
52458;SDS011;38372;52.902;6.024;2024-01-10T04:08:56;5.10;;;3.35;;
52458;SDS011;38372;52.902;6.024;2024-01-10T04:11:22;6.82;;;3.97;;
52458;SDS011;38372;52.902;6.024;2024-01-10T04:13:47;6.18;;;2.95;;
52458;SDS011;38372;52.902;6.024;2024-01-10T04:16:26;2.92;;;2.40;;
52458;SDS011;38372;52.902;6.024;2024-01-10T04:18:52;5.78;;;3.45;;
52458;SDS011;38372;52.902;6.024;2024-01-10T04:21:18;6.75;;;3.28;;
52458;SDS011;38372;52.902;6.024;2024-01-10T04:23:44;9.05;;;3.05;;
52458;SDS011;38372;52.902;6.024;2024-01-10T04:26:10;7.18;;;3.17;;
52458;SDS011;38372;52.902;6.024;2024-01-10T04:28:35;5.75;;;2.85;;
52458;SDS011;38372;52.902;6.024;2024-01-10T04:31:04;5.05;;;2.50;;
52458;SDS011;38372;52.902;6.024;2024-01-10T04:33:30;9.00;;;3.08;;
52458;SDS011;38372;52.902;6.024;2024-01-10T04:35:55;7.65;;;5.05;;
52458;SDS011;38372;52.902;6.024;2024-01-10T04:38:21;5.85;;;3.40;;
52458;SDS011;38372;52.902;6.024;2024-01-10T04:40:51;4.70;;;3.50;;
52458;SDS011;38372;52.902;6.024;2024-01-10T04:43:16;3.22;;;2.72;;
52458;SDS011;38372;52.902;6.024;2024-01-10T04:45:42;5.22;;;3.08;;
52458;SDS011;38372;52.902;6.024;2024-01-10T04:48:20;5.20;;;3.40;;
52458;SDS011;38372;52.902;6.024;2024-01-10T04:50:46;6.53;;;3.25;;
52458;SDS011;38372;52.902;6.024;2024-01-10T04:53:12;4.68;;;3.67;;
52458;SDS011;38372;52.902;6.024;2024-01-10T04:55:38;5.45;;;3.28;;
52458;SDS011;38372;52.902;6.024;2024-01-10T04:58:03;5.80;;;2.45;;
52458;SDS011;38372;52.902;6.024;2024-01-10T05:00:29;5.65;;;2.95;;
52458;SDS011;38372;52.902;6.024;2024-01-10T05:02:55;8.32;;;3.88;;
52458;SDS011;38372;52.902;6.024;2024-01-10T05:05:21;9.43;;;4.55;;
52458;SDS011;38372;52.902;6.024;2024-01-10T05:07:49;4.00;;;3.05;;
52458;SDS011;38372;52.902;6.024;2024-01-10T05:10:16;6.40;;;3.47;;
52458;SDS011;38372;52.902;6.024;2024-01-10T05:12:41;8.35;;;3.83;;
52458;SDS011;38372;52.902;6.024;2024-01-10T05:15:07;10.55;;;2.88;;
52458;SDS011;38372;52.902;6.024;2024-01-10T05:17:39;4.60;;;2.47;;
52458;SDS011;38372;52.902;6.024;2024-01-10T05:20:05;4.90;;;2.30;;
52458;SDS011;38372;52.902;6.024;2024-01-10T05:22:41;6.38;;;2.83;;
52458;SDS011;38372;52.902;6.024;2024-01-10T05:25:08;6.60;;;3.47;;
52458;SDS011;38372;52.902;6.024;2024-01-10T05:27:33;7.22;;;2.35;;
52458;SDS011;38372;52.902;6.024;2024-01-10T05:29:59;4.25;;;3.13;;
52458;SDS011;38372;52.902;6.024;2024-01-10T05:32:26;5.90;;;3.78;;
52458;SDS011;38372;52.902;6.024;2024-01-10T05:34:52;4.70;;;3.53;;
52458;SDS011;38372;52.902;6.024;2024-01-10T05:37:18;4.95;;;3.55;;
52458;SDS011;38372;52.902;6.024;2024-01-10T05:39:44;7.88;;;3.75;;
52458;SDS011;38372;52.902;6.024;2024-01-10T05:42:10;2.58;;;1.90;;
52458;SDS011;38372;52.902;6.024;2024-01-10T05:44:43;5.13;;;3.00;;
52458;SDS011;38372;52.902;6.024;2024-01-10T05:47:22;4.40;;;3.33;;
52458;SDS011;38372;52.902;6.024;2024-01-10T05:49:54;4.43;;;2.70;;
52458;SDS011;38372;52.902;6.024;2024-01-10T05:52:20;4.88;;;3.22;;
52458;SDS011;38372;52.902;6.024;2024-01-10T05:54:47;4.57;;;3.47;;
52458;SDS011;38372;52.902;6.024;2024-01-10T05:57:13;6.40;;;4.00;;
52458;SDS011;38372;52.902;6.024;2024-01-10T05:59:40;5.25;;;3.70;;
52458;SDS011;38372;52.902;6.024;2024-01-10T06:02:05;6.78;;;2.58;;
52458;SDS011;38372;52.902;6.024;2024-01-10T06:04:31;10.35;;;4.30;;
52458;SDS011;38372;52.902;6.024;2024-01-10T06:06:58;7.30;;;2.90;;
52458;SDS011;38372;52.902;6.024;2024-01-10T06:09:24;4.32;;;2.35;;
52458;SDS011;38372;52.902;6.024;2024-01-10T06:11:50;3.95;;;2.53;;
52458;SDS011;38372;52.902;6.024;2024-01-10T06:14:16;4.30;;;2.55;;
52458;SDS011;38372;52.902;6.024;2024-01-10T06:16:55;5.97;;;4.35;;
52458;SDS011;38372;52.902;6.024;2024-01-10T06:19:24;7.70;;;2.95;;
52458;SDS011;38372;52.902;6.024;2024-01-10T06:21:50;11.30;;;3.88;;
52458;SDS011;38372;52.902;6.024;2024-01-10T06:24:17;4.32;;;2.15;;
52458;SDS011;38372;52.902;6.024;2024-01-10T06:26:43;9.05;;;2.60;;
52458;SDS011;38372;52.902;6.024;2024-01-10T06:29:09;5.80;;;3.08;;
52458;SDS011;38372;52.902;6.024;2024-01-10T06:31:35;6.03;;;2.05;;
52458;SDS011;38372;52.902;6.024;2024-01-10T06:34:00;3.45;;;2.60;;
52458;SDS011;38372;52.902;6.024;2024-01-10T06:36:26;6.38;;;2.90;;
52458;SDS011;38372;52.902;6.024;2024-01-10T06:38:52;4.97;;;2.83;;
52458;SDS011;38372;52.902;6.024;2024-01-10T06:41:17;4.72;;;2.40;;
52458;SDS011;38372;52.902;6.024;2024-01-10T06:43:50;3.50;;;2.22;;
52458;SDS011;38372;52.902;6.024;2024-01-10T06:46:16;6.68;;;3.75;;
52458;SDS011;38372;52.902;6.024;2024-01-10T06:48:42;3.92;;;2.35;;
52458;SDS011;38372;52.902;6.024;2024-01-10T06:51:14;6.07;;;3.40;;
52458;SDS011;38372;52.902;6.024;2024-01-10T06:53:40;4.82;;;2.85;;
52458;SDS011;38372;52.902;6.024;2024-01-10T06:56:06;5.70;;;2.50;;
52458;SDS011;38372;52.902;6.024;2024-01-10T06:58:32;4.57;;;2.67;;
52458;SDS011;38372;52.902;6.024;2024-01-10T07:00:58;4.00;;;3.00;;
52458;SDS011;38372;52.902;6.024;2024-01-10T07:03:39;3.80;;;3.45;;
52458;SDS011;38372;52.902;6.024;2024-01-10T07:06:05;3.50;;;2.58;;
52458;SDS011;38372;52.902;6.024;2024-01-10T07:08:31;6.47;;;2.42;;
52458;SDS011;38372;52.902;6.024;2024-01-10T07:10:57;14.85;;;3.90;;
52458;SDS011;38372;52.902;6.024;2024-01-10T07:13:23;6.20;;;2.17;;
52458;SDS011;38372;52.902;6.024;2024-01-10T07:15:55;5.22;;;3.33;;
52458;SDS011;38372;52.902;6.024;2024-01-10T07:18:28;7.43;;;3.58;;
52458;SDS011;38372;52.902;6.024;2024-01-10T07:20:54;2.80;;;2.33;;
52458;SDS011;38372;52.902;6.024;2024-01-10T07:23:20;11.05;;;4.03;;
52458;SDS011;38372;52.902;6.024;2024-01-10T07:25:47;3.05;;;1.70;;
52458;SDS011;38372;52.902;6.024;2024-01-10T07:28:13;3.85;;;1.70;;
52458;SDS011;38372;52.902;6.024;2024-01-10T07:30:39;7.65;;;3.55;;
52458;SDS011;38372;52.902;6.024;2024-01-10T07:33:05;4.95;;;1.65;;
52458;SDS011;38372;52.902;6.024;2024-01-10T07:35:32;3.75;;;2.45;;
52458;SDS011;38372;52.902;6.024;2024-01-10T07:37:57;6.68;;;2.13;;
52458;SDS011;38372;52.902;6.024;2024-01-10T07:40:23;4.22;;;2.97;;
52458;SDS011;38372;52.902;6.024;2024-01-10T07:42:49;3.70;;;2.63;;
52458;SDS011;38372;52.902;6.024;2024-01-10T07:45:15;2.22;;;2.03;;
52458;SDS011;38372;52.902;6.024;2024-01-10T07:47:40;7.22;;;3.00;;
52458;SDS011;38372;52.902;6.024;2024-01-10T07:50:10;1.63;;;1.38;;
52458;SDS011;38372;52.902;6.024;2024-01-10T07:52:39;4.22;;;2.95;;
52458;SDS011;38372;52.902;6.024;2024-01-10T07:55:06;2.78;;;1.88;;
52458;SDS011;38372;52.902;6.024;2024-01-10T07:57:33;3.60;;;2.53;;
52458;SDS011;38372;52.902;6.024;2024-01-10T07:59:59;4.22;;;2.83;;
52458;SDS011;38372;52.902;6.024;2024-01-10T08:02:25;4.45;;;2.95;;
52458;SDS011;38372;52.902;6.024;2024-01-10T08:04:51;3.72;;;1.65;;
52458;SDS011;38372;52.902;6.024;2024-01-10T08:07:18;6.10;;;1.67;;
52458;SDS011;38372;52.902;6.024;2024-01-10T08:09:51;7.70;;;2.42;;
52458;SDS011;38372;52.902;6.024;2024-01-10T08:12:17;4.45;;;2.78;;
52458;SDS011;38372;52.902;6.024;2024-01-10T08:14:50;4.43;;;2.67;;
52458;SDS011;38372;52.902;6.024;2024-01-10T08:17:16;7.28;;;4.07;;
52458;SDS011;38372;52.902;6.024;2024-01-10T08:19:42;8.07;;;3.38;;
52458;SDS011;38372;52.902;6.024;2024-01-10T08:22:08;5.93;;;3.42;;
52458;SDS011;38372;52.902;6.024;2024-01-10T08:24:35;7.38;;;2.97;;
52458;SDS011;38372;52.902;6.024;2024-01-10T08:27:01;4.55;;;2.22;;
52458;SDS011;38372;52.902;6.024;2024-01-10T08:29:27;4.07;;;2.88;;
52458;SDS011;38372;52.902;6.024;2024-01-10T08:31:56;6.03;;;3.63;;
52458;SDS011;38372;52.902;6.024;2024-01-10T08:34:23;14.20;;;4.00;;
52458;SDS011;38372;52.902;6.024;2024-01-10T08:36:49;4.72;;;2.95;;
52458;SDS011;38372;52.902;6.024;2024-01-10T08:39:16;3.30;;;2.70;;
52458;SDS011;38372;52.902;6.024;2024-01-10T08:41:42;4.90;;;3.53;;
52458;SDS011;38372;52.902;6.024;2024-01-10T08:44:12;10.25;;;4.30;;
52458;SDS011;38372;52.902;6.024;2024-01-10T08:46:38;6.63;;;3.45;;
52458;SDS011;38372;52.902;6.024;2024-01-10T08:49:04;8.10;;;4.30;;
52458;SDS011;38372;52.902;6.024;2024-01-10T08:51:30;11.52;;;5.07;;
52458;SDS011;38372;52.902;6.024;2024-01-10T08:53:56;15.90;;;5.75;;
52458;SDS011;38372;52.902;6.024;2024-01-10T08:56:22;15.80;;;7.07;;
52458;SDS011;38372;52.902;6.024;2024-01-10T08:58:49;24.27;;;5.82;;
52458;SDS011;38372;52.902;6.024;2024-01-10T09:01:15;39.90;;;13.05;;
52458;SDS011;38372;52.902;6.024;2024-01-10T09:03:40;67.72;;;19.77;;
52458;SDS011;38372;52.902;6.024;2024-01-10T09:06:06;13.30;;;8.70;;
52458;SDS011;38372;52.902;6.024;2024-01-10T09:08:35;8.43;;;5.53;;
52458;SDS011;38372;52.902;6.024;2024-01-10T09:11:01;11.82;;;5.80;;
52458;SDS011;38372;52.902;6.024;2024-01-10T09:13:28;8.00;;;4.50;;
52458;SDS011;38372;52.902;6.024;2024-01-10T09:16:00;8.38;;;4.75;;
52458;SDS011;38372;52.902;6.024;2024-01-10T09:18:32;9.07;;;5.05;;
52458;SDS011;38372;52.902;6.024;2024-01-10T09:20:58;6.45;;;3.72;;
52458;SDS011;38372;52.902;6.024;2024-01-10T09:23:24;8.73;;;5.15;;
52458;SDS011;38372;52.902;6.024;2024-01-10T09:25:52;6.63;;;4.65;;
52458;SDS011;38372;52.902;6.024;2024-01-10T09:28:18;8.07;;;4.85;;
52458;SDS011;38372;52.902;6.024;2024-01-10T09:30:44;5.82;;;3.15;;
52458;SDS011;38372;52.902;6.024;2024-01-10T09:33:10;14.10;;;5.55;;
52458;SDS011;38372;52.902;6.024;2024-01-10T09:35:36;11.90;;;4.75;;
52458;SDS011;38372;52.902;6.024;2024-01-10T09:38:02;8.82;;;4.35;;
52458;SDS011;38372;52.902;6.024;2024-01-10T09:40:28;12.10;;;4.32;;
52458;SDS011;38372;52.902;6.024;2024-01-10T09:42:54;9.45;;;5.20;;
52458;SDS011;38372;52.902;6.024;2024-01-10T09:45:20;11.90;;;5.00;;
52458;SDS011;38372;52.902;6.024;2024-01-10T09:47:48;9.15;;;5.47;;
52458;SDS011;38372;52.902;6.024;2024-01-10T09:50:17;8.02;;;4.53;;
52458;SDS011;38372;52.902;6.024;2024-01-10T09:55:22;10.75;;;5.20;;
52458;SDS011;38372;52.902;6.024;2024-01-10T09:57:48;12.55;;;4.63;;
52458;SDS011;38372;52.902;6.024;2024-01-10T10:00:15;6.53;;;3.95;;
52458;SDS011;38372;52.902;6.024;2024-01-10T10:02:41;9.80;;;5.82;;
52458;SDS011;38372;52.902;6.024;2024-01-10T10:07:44;13.82;;;6.35;;
52458;SDS011;38372;52.902;6.024;2024-01-10T10:12:49;10.20;;;4.97;;
52458;SDS011;38372;52.902;6.024;2024-01-10T10:15:25;8.38;;;4.75;;
52458;SDS011;38372;52.902;6.024;2024-01-10T10:17:51;10.40;;;4.93;;
52458;SDS011;38372;52.902;6.024;2024-01-10T10:20:23;9.73;;;4.07;;
52458;SDS011;38372;52.902;6.024;2024-01-10T10:23:00;10.82;;;5.53;;
52458;SDS011;38372;52.902;6.024;2024-01-10T10:25:47;10.30;;;5.30;;
52458;SDS011;38372;52.902;6.024;2024-01-10T10:28:13;10.35;;;5.25;;
52458;SDS011;38372;52.902;6.024;2024-01-10T10:30:40;7.70;;;4.35;;
52458;SDS011;38372;52.902;6.024;2024-01-10T10:33:06;11.25;;;4.93;;
52458;SDS011;38372;52.902;6.024;2024-01-10T10:35:37;12.55;;;5.35;;
52458;SDS011;38372;52.902;6.024;2024-01-10T10:38:03;9.52;;;4.53;;
52458;SDS011;38372;52.902;6.024;2024-01-10T10:40:29;9.35;;;4.97;;
52458;SDS011;38372;52.902;6.024;2024-01-10T10:42:55;9.40;;;4.30;;
52458;SDS011;38372;52.902;6.024;2024-01-10T10:47:58;7.22;;;4.22;;
52458;SDS011;38372;52.902;6.024;2024-01-10T10:50:34;9.88;;;4.97;;
52458;SDS011;38372;52.902;6.024;2024-01-10T10:53:02;11.57;;;5.32;;
52458;SDS011;38372;52.902;6.024;2024-01-10T10:55:29;10.55;;;4.75;;
52458;SDS011;38372;52.902;6.024;2024-01-10T10:57:55;13.27;;;4.80;;
52458;SDS011;38372;52.902;6.024;2024-01-10T11:00:23;9.18;;;3.67;;
52458;SDS011;38372;52.902;6.024;2024-01-10T11:02:55;10.93;;;5.22;;
52458;SDS011;38372;52.902;6.024;2024-01-10T11:05:24;11.80;;;4.32;;
52458;SDS011;38372;52.902;6.024;2024-01-10T11:07:52;10.15;;;4.70;;
52458;SDS011;38372;52.902;6.024;2024-01-10T11:10:21;10.50;;;4.45;;
52458;SDS011;38372;52.902;6.024;2024-01-10T11:21:43;6.32;;;3.60;;
52458;SDS011;38372;52.902;6.024;2024-01-10T11:24:12;8.50;;;4.40;;
52458;SDS011;38372;52.902;6.024;2024-01-10T11:26:38;10.07;;;4.45;;
52458;SDS011;38372;52.902;6.024;2024-01-10T11:29:04;9.55;;;3.85;;
52458;SDS011;38372;52.902;6.024;2024-01-10T11:31:31;10.00;;;4.32;;
52458;SDS011;38372;52.902;6.024;2024-01-10T11:33:58;7.65;;;3.90;;
52458;SDS011;38372;52.902;6.024;2024-01-10T11:36:26;9.38;;;3.00;;
52458;SDS011;38372;52.902;6.024;2024-01-10T11:41:22;9.65;;;3.45;;
52458;SDS011;38372;52.902;6.024;2024-01-10T11:46:50;7.53;;;3.60;;
52458;SDS011;38372;52.902;6.024;2024-01-10T11:49:18;8.73;;;3.67;;
52458;SDS011;38372;52.902;6.024;2024-01-10T11:51:49;7.93;;;3.65;;
52458;SDS011;38372;52.902;6.024;2024-01-10T11:54:38;8.90;;;3.55;;
52458;SDS011;38372;52.902;6.024;2024-01-10T11:57:10;7.22;;;3.47;;
52458;SDS011;38372;52.902;6.024;2024-01-10T11:59:42;8.25;;;3.72;;
52458;SDS011;38372;52.902;6.024;2024-01-10T12:02:11;9.60;;;4.13;;
52458;SDS011;38372;52.902;6.024;2024-01-10T12:04:38;8.48;;;3.33;;
52458;SDS011;38372;52.902;6.024;2024-01-10T12:07:05;9.68;;;3.53;;
52458;SDS011;38372;52.902;6.024;2024-01-10T12:09:33;9.18;;;3.45;;
52458;SDS011;38372;52.902;6.024;2024-01-10T12:12:00;10.38;;;3.55;;
52458;SDS011;38372;52.902;6.024;2024-01-10T12:14:26;7.18;;;3.30;;
52458;SDS011;38372;52.902;6.024;2024-01-10T12:17:05;6.40;;;2.38;;
52458;SDS011;38372;52.902;6.024;2024-01-10T12:19:36;8.88;;;3.05;;
52458;SDS011;38372;52.902;6.024;2024-01-10T12:22:02;5.33;;;2.47;;
52458;SDS011;38372;52.902;6.024;2024-01-10T12:24:30;6.95;;;3.08;;
52458;SDS011;38372;52.902;6.024;2024-01-10T12:26:57;6.32;;;2.70;;
52458;SDS011;38372;52.902;6.024;2024-01-10T12:29:23;10.48;;;3.22;;
52458;SDS011;38372;52.902;6.024;2024-01-10T12:31:50;5.43;;;2.28;;
52458;SDS011;38372;52.902;6.024;2024-01-10T12:34:17;7.90;;;3.60;;
52458;SDS011;38372;52.902;6.024;2024-01-10T12:36:42;10.70;;;4.07;;
52458;SDS011;38372;52.902;6.024;2024-01-10T12:39:09;12.75;;;4.10;;
52458;SDS011;38372;52.902;6.024;2024-01-10T12:41:35;8.60;;;4.18;;
52458;SDS011;38372;52.902;6.024;2024-01-10T12:44:02;6.45;;;3.10;;
52458;SDS011;38372;52.902;6.024;2024-01-10T12:46:29;8.10;;;3.03;;
52458;SDS011;38372;52.902;6.024;2024-01-10T12:51:30;9.00;;;3.50;;
52458;SDS011;38372;52.902;6.024;2024-01-10T12:54:00;7.43;;;2.78;;
52458;SDS011;38372;52.902;6.024;2024-01-10T12:56:26;6.45;;;2.75;;
52458;SDS011;38372;52.902;6.024;2024-01-10T12:58:53;7.90;;;2.42;;
52458;SDS011;38372;52.902;6.024;2024-01-10T13:01:22;5.93;;;2.45;;
52458;SDS011;38372;52.902;6.024;2024-01-10T13:03:49;7.10;;;2.67;;
52458;SDS011;38372;52.902;6.024;2024-01-10T13:06:16;6.10;;;2.75;;
52458;SDS011;38372;52.902;6.024;2024-01-10T13:08:44;6.72;;;3.17;;
52458;SDS011;38372;52.902;6.024;2024-01-10T13:11:10;7.05;;;3.20;;
52458;SDS011;38372;52.902;6.024;2024-01-10T13:13:38;8.02;;;2.72;;
52458;SDS011;38372;52.902;6.024;2024-01-10T13:16:05;8.30;;;3.25;;
52458;SDS011;38372;52.902;6.024;2024-01-10T13:18:42;6.40;;;3.10;;
52458;SDS011;38372;52.902;6.024;2024-01-10T13:21:08;4.22;;;2.17;;
52458;SDS011;38372;52.902;6.024;2024-01-10T13:23:35;5.25;;;2.38;;
52458;SDS011;38372;52.902;6.024;2024-01-10T13:26:01;13.63;;;3.38;;
52458;SDS011;38372;52.902;6.024;2024-01-10T13:28:27;5.07;;;1.83;;
52458;SDS011;38372;52.902;6.024;2024-01-10T13:30:53;11.02;;;3.13;;
52458;SDS011;38372;52.902;6.024;2024-01-10T13:33:21;4.10;;;2.28;;
52458;SDS011;38372;52.902;6.024;2024-01-10T13:35:47;6.55;;;2.67;;
52458;SDS011;38372;52.902;6.024;2024-01-10T13:38:15;8.27;;;2.80;;
52458;SDS011;38372;52.902;6.024;2024-01-10T13:40:42;6.72;;;1.98;;
52458;SDS011;38372;52.902;6.024;2024-01-10T13:43:08;3.38;;;1.38;;
52458;SDS011;38372;52.902;6.024;2024-01-10T13:45:34;3.20;;;2.28;;
52458;SDS011;38372;52.902;6.024;2024-01-10T13:48:01;5.22;;;2.13;;
52458;SDS011;38372;52.902;6.024;2024-01-10T13:50:27;6.97;;;3.28;;
52458;SDS011;38372;52.902;6.024;2024-01-10T13:52:55;6.15;;;2.53;;
52458;SDS011;38372;52.902;6.024;2024-01-10T13:55:21;6.63;;;3.33;;
52458;SDS011;38372;52.902;6.024;2024-01-10T13:57:49;6.95;;;2.97;;
52458;SDS011;38372;52.902;6.024;2024-01-10T14:00:14;9.02;;;3.13;;
52458;SDS011;38372;52.902;6.024;2024-01-10T14:02:43;8.93;;;3.80;;
52458;SDS011;38372;52.902;6.024;2024-01-10T14:05:09;4.72;;;1.83;;
52458;SDS011;38372;52.902;6.024;2024-01-10T14:07:35;6.75;;;1.85;;
52458;SDS011;38372;52.902;6.024;2024-01-10T14:10:01;6.68;;;2.58;;
52458;SDS011;38372;52.902;6.024;2024-01-10T14:12:30;6.22;;;2.33;;
52458;SDS011;38372;52.902;6.024;2024-01-10T14:14:56;5.57;;;2.35;;
52458;SDS011;38372;52.902;6.024;2024-01-10T14:17:35;5.55;;;1.80;;
52458;SDS011;38372;52.902;6.024;2024-01-10T14:20:01;4.15;;;2.30;;
52458;SDS011;38372;52.902;6.024;2024-01-10T14:22:27;8.07;;;2.60;;
52458;SDS011;38372;52.902;6.024;2024-01-10T14:24:53;6.00;;;2.20;;
52458;SDS011;38372;52.902;6.024;2024-01-10T14:27:19;6.63;;;2.55;;
52458;SDS011;38372;52.902;6.024;2024-01-10T14:29:45;5.75;;;2.50;;
52458;SDS011;38372;52.902;6.024;2024-01-10T14:32:11;11.48;;;3.20;;
52458;SDS011;38372;52.902;6.024;2024-01-10T14:34:39;6.88;;;2.33;;
52458;SDS011;38372;52.902;6.024;2024-01-10T14:37:05;4.90;;;1.88;;
52458;SDS011;38372;52.902;6.024;2024-01-10T14:39:32;9.55;;;3.20;;
52458;SDS011;38372;52.902;6.024;2024-01-10T14:41:59;6.30;;;2.85;;
52458;SDS011;38372;52.902;6.024;2024-01-10T14:44:25;3.90;;;2.13;;
52458;SDS011;38372;52.902;6.024;2024-01-10T14:46:51;6.18;;;3.17;;
52458;SDS011;38372;52.902;6.024;2024-01-10T14:49:17;6.93;;;2.35;;
52458;SDS011;38372;52.902;6.024;2024-01-10T14:51:43;6.00;;;2.35;;
52458;SDS011;38372;52.902;6.024;2024-01-10T14:54:09;7.90;;;2.22;;
52458;SDS011;38372;52.902;6.024;2024-01-10T14:56:35;6.03;;;2.88;;
52458;SDS011;38372;52.902;6.024;2024-01-10T14:59:01;5.18;;;1.80;;
52458;SDS011;38372;52.902;6.024;2024-01-10T15:01:26;6.90;;;2.63;;
52458;SDS011;38372;52.902;6.024;2024-01-10T15:03:52;9.60;;;2.58;;
52458;SDS011;38372;52.902;6.024;2024-01-10T15:06:18;8.35;;;3.65;;
52458;SDS011;38372;52.902;6.024;2024-01-10T15:08:44;5.57;;;3.22;;
52458;SDS011;38372;52.902;6.024;2024-01-10T15:11:09;6.50;;;3.10;;
52458;SDS011;38372;52.902;6.024;2024-01-10T15:13:36;8.55;;;2.72;;
52458;SDS011;38372;52.902;6.024;2024-01-10T15:16:04;7.88;;;2.03;;
52458;SDS011;38372;52.902;6.024;2024-01-10T15:18:36;11.32;;;3.15;;